Time;durP1;ratioP1;P1;durP2;ratioP2;P2;SDS_P1;SDS_P2;PMS_P1;PMS_P2;Temp;Humidity;BMP_temperature;BMP_pressure;BME280_temperature;BME280_humidity;BME280_pressure;Samples;Min_cycle;Max_cycle;Signal;HPM_P1;HPM_P2
2022/01/24 00:00:51;;;;;;;12.70;5.38;;;;;;;-6.49;73.90;94479.94;5023743;28;20025;-76
2022/01/24 00:03:16;;;;;;;13.48;5.03;;;;;;;-6.49;73.72;94472.16;5023478;28;20101;-76
2022/01/24 00:05:42;;;;;;;14.50;5.70;;;;;;;-6.52;73.71;94471.75;5023565;28;20033;-76
2022/01/24 00:08:07;;;;;;;17.42;5.38;;;;;;;-6.44;74.25;94481.16;5023593;28;20064;-75
2022/01/24 00:10:35;;;;;;;13.38;5.70;;;;;;;-6.39;73.87;94484.78;5023509;28;20060;-75
2022/01/24 00:16:17;;;;;;;16.63;5.60;;;;;;;-6.32;74.05;94485.59;5023388;28;20350;-76
2022/01/24 00:26:54;;;;;;;10.45;5.32;;;;;;;-6.25;74.86;94503.78;5023078;28;20123;-76
2022/01/24 00:29:22;;;;;;;12.75;5.10;;;;;;;-6.22;74.49;94498.22;5022938;28;20022;-76
2022/01/24 00:31:48;;;;;;;13.55;5.68;;;;;;;-6.23;74.39;94493.22;5023120;28;20044;-76
2022/01/24 00:34:15;;;;;;;12.20;6.00;;;;;;;-6.22;74.68;94500.03;5023110;28;20104;-76
2022/01/24 00:36:41;;;;;;;14.88;6.43;;;;;;;-6.18;74.75;94486.47;5023195;28;20089;-76
2022/01/24 00:39:08;;;;;;;15.35;6.93;;;;;;;-6.14;74.79;94505.06;5038366;28;20021;-76
2022/01/24 00:42:30;;;;;;;12.55;5.38;;;;;;;-6.09;74.88;94500.06;5022910;28;20084;-76
2022/01/24 00:47:13;;;;;;;12.45;5.85;;;;;;;-6.19;73.82;94510.00;5022953;28;20048;-76
2022/01/24 00:54:54;;;;;;;17.80;6.55;;;;;;;-6.19;73.19;94499.63;5022776;28;20339;-76
2022/01/24 00:57:20;;;;;;;14.43;6.85;;;;;;;-6.20;72.82;94508.41;5022629;28;20014;-76
2022/01/24 00:59:47;;;;;;;13.65;5.85;;;;;;;-6.19;72.25;94510.00;5022696;28;20022;-76
2022/01/24 01:02:13;;;;;;;13.52;5.88;;;;;;;-6.17;71.73;94510.63;5022942;28;20271;-74
2022/01/24 01:18:19;;;;;;;23.63;6.43;;;;;;;-5.95;71.47;94508.69;5022616;28;20025;-75
2022/01/24 01:23:33;;;;;;;14.55;6.18;;;;;;;-5.95;71.62;94501.72;5022441;28;20033;-75
2022/01/24 01:26:03;;;;;;;22.83;6.43;;;;;;;-5.96;71.77;94502.72;5022381;28;20205;-75
2022/01/24 01:28:30;;;;;;;12.85;6.05;;;;;;;-5.99;71.92;94492.72;5022468;28;20277;-75
2022/01/24 01:31:00;;;;;;;16.88;6.85;;;;;;;-6.00;72.14;94498.09;5022687;28;20017;-75
2022/01/24 01:33:43;;;;;;;13.90;6.53;;;;;;;-6.07;72.17;94495.47;5022418;28;20201;-74
2022/01/24 01:52:38;;;;;;;16.58;6.93;;;;;;;-6.25;73.89;94501.19;5022280;28;20260;-75
2022/01/24 01:57:32;;;;;;;19.58;7.47;;;;;;;-6.19;73.30;94499.63;5022139;28;20026;-75
2022/01/24 01:59:57;;;;;;;16.17;6.68;;;;;;;-6.19;72.85;94499.63;5022111;28;20087;-75
2022/01/24 02:02:23;;;;;;;16.70;6.90;;;;;;;-6.22;72.78;94503.41;5022810;28;20018;-75
2022/01/24 02:04:48;;;;;;;14.70;7.50;;;;;;;-6.29;72.39;94511.19;5025807;28;20052;-75
2022/01/24 02:07:15;;;;;;;16.50;7.68;;;;;;;-6.31;72.59;94502.78;5025841;28;20041;-75
2022/01/24 02:09:43;;;;;;;20.85;6.30;;;;;;;-6.36;72.83;94502.56;5025656;28;20096;-75
2022/01/24 02:12:10;;;;;;;11.93;6.22;;;;;;;-6.42;72.49;94505.91;5025622;28;20032;-75
2022/01/24 02:14:40;;;;;;;19.08;7.18;;;;;;;-6.45;72.64;94498.53;5025450;28;20370;-76
2022/01/24 02:17:15;;;;;;;15.25;6.18;;;;;;;-6.59;73.19;94500.25;5025554;28;20014;-76
2022/01/24 02:25:07;;;;;;;14.00;6.50;;;;;;;-6.63;73.67;94508.56;5025483;28;20316;-75
2022/01/24 02:27:43;;;;;;;16.65;7.82;;;;;;;-6.61;73.66;94511.78;5025503;28;20025;-75
2022/01/24 02:30:55;;;;;;;20.10;6.80;;;;;;;-6.58;73.77;94514.81;5025320;28;20049;-75
2022/01/24 02:33:01;;;;;;;13.88;6.40;;;;;;;-6.58;73.90;94511.41;5026773;28;20036;-75
2022/01/24 02:35:27;;;;;;;17.73;7.88;;;;;;;-6.49;73.64;94510.28;5025302;28;20324;-75
2022/01/24 02:37:53;;;;;;;17.42;7.35;;;;;;;-6.37;73.39;94519.13;5024990;28;20032;-74
2022/01/24 02:40:20;;;;;;;11.90;6.63;;;;;;;-6.32;73.17;94508.16;5025124;28;20086;-74
2022/01/24 02:53:33;;;;;;;16.98;7.20;;;;;;;-6.13;72.90;94530.78;5024850;28;20079;-75
2022/01/24 02:55:59;;;;;;;15.27;7.45;;;;;;;-6.02;72.59;94524.25;5025143;28;20081;-76
2022/01/24 02:58:25;;;;;;;10.68;5.75;;;;;;;-5.99;72.44;94529.06;5024705;28;20052;-75
2022/01/24 03:00:52;;;;;;;19.30;7.03;;;;;;;-5.94;72.61;94534.44;5024814;28;20018;-77
2022/01/24 03:03:17;;;;;;;14.45;7.25;;;;;;;-5.93;72.35;94535.25;5024647;28;20030;-75
2022/01/24 03:05:43;;;;;;;14.30;6.43;;;;;;;-5.87;72.38;94537.84;5024573;28;20390;-75
2022/01/24 03:08:08;;;;;;;14.07;6.53;;;;;;;-5.80;71.61;94542.25;5024485;28;20312;-75
2022/01/24 03:10:39;;;;;;;16.83;7.55;;;;;;;-5.79;71.63;94543.88;5024474;28;20033;-75
2022/01/24 03:13:18;;;;;;;10.18;5.43;;;;;;;-5.80;71.21;94537.06;5024301;28;20109;-75
2022/01/24 03:15:48;;;;;;;12.30;5.88;;;;;;;-5.77;71.13;94541.88;5024469;28;20017;-75
2022/01/24 03:18:14;;;;;;;13.23;5.82;;;;;;;-5.80;71.16;94539.66;5024422;28;20025;-75
2022/01/24 03:20:40;;;;;;;16.40;6.68;;;;;;;-5.80;71.18;94547.47;5023241;28;20083;-75
2022/01/24 03:23:06;;;;;;;14.38;6.15;;;;;;;-5.72;71.24;94549.88;5024197;28;20168;-75
2022/01/24 03:25:31;;;;;;;13.00;6.38;;;;;;;-5.71;70.94;94551.50;5024229;28;20092;-75
2022/01/24 03:27:57;;;;;;;11.18;5.82;;;;;;;-5.64;70.99;94552.31;5024257;28;20185;-74
2022/01/24 03:30:24;;;;;;;17.70;7.63;;;;;;;-5.63;70.73;94555.72;5024170;28;20033;-74
2022/01/24 03:32:49;;;;;;;14.52;7.45;;;;;;;-5.62;70.62;94555.50;5024162;28;20036;-74
2022/01/24 03:35:16;;;;;;;13.73;7.43;;;;;;;-5.60;71.09;94552.72;5024258;28;20034;-74
2022/01/24 03:37:41;;;;;;;13.88;7.18;;;;;;;-5.57;70.27;94558.31;5039477;28;20320;-75
2022/01/24 03:40:07;;;;;;;14.38;6.22;;;;;;;-5.63;71.13;94572.09;5024115;28;20076;-75
2022/01/24 03:42:33;;;;;;;16.65;7.05;;;;;;;-5.58;70.83;94563.72;5023817;28;20395;-77
2022/01/24 03:45:03;;;;;;;16.08;7.70;;;;;;;-5.59;70.89;94570.72;5023900;28;20025;-76
2022/01/24 03:50:01;;;;;;;17.52;7.53;;;;;;;-5.63;70.96;94576.50;5023716;28;20181;-77
2022/01/24 03:52:30;;;;;;;15.63;7.35;;;;;;;-5.71;70.74;94580.84;5023770;28;20044;-77
2022/01/24 03:54:57;;;;;;;14.85;7.00;;;;;;;-5.62;70.90;94578.88;5023627;28;20040;-78
2022/01/24 03:57:23;;;;;;;14.98;6.28;;;;;;;-5.66;70.98;94577.66;5023739;28;20085;-77
2022/01/24 03:59:49;;;;;;;14.43;6.90;;;;;;;-5.66;70.91;94595.84;5038958;28;20089;-77
2022/01/24 04:02:18;;;;;;;11.13;5.65;;;;;;;-5.73;70.53;94589.84;5023799;28;20206;-76
2022/01/24 04:04:43;;;;;;;12.25;6.38;;;;;;;-5.70;70.56;94590.25;5023716;28;20018;-74
2022/01/24 04:07:09;;;;;;;14.40;6.53;;;;;;;-5.65;70.59;94592.28;5023489;28;20092;-75
2022/01/24 04:09:36;;;;;;;12.88;6.65;;;;;;;-5.58;71.06;94587.88;5023553;28;20026;-75
2022/01/24 04:12:02;;;;;;;14.40;7.07;;;;;;;-5.45;71.12;94592.34;5023412;28;20044;-75
2022/01/24 04:15:09;;;;;;;15.18;6.97;;;;;;;-5.36;69.84;94603.34;5023091;28;20045;-75
2022/01/24 04:17:23;;;;;;;14.57;6.57;;;;;;;-5.34;69.79;94607.34;5024022;28;20033;-75
2022/01/24 04:22:29;;;;;;;14.82;7.55;;;;;;;-5.15;69.73;94603.22;5023386;28;20026;-75
2022/01/24 04:25:00;;;;;;;19.63;8.38;;;;;;;-5.05;70.31;94619.22;5022648;28;20025;-75
2022/01/24 04:27:26;;;;;;;16.20;8.00;;;;;;;-4.94;69.91;94606.63;5023069;28;20045;-75
2022/01/24 04:29:52;;;;;;;21.17;8.85;;;;;;;-4.85;69.78;94615.84;5023030;28;20022;-75
2022/01/24 04:32:18;;;;;;;18.75;8.77;;;;;;;-4.79;69.76;94619.44;5023145;28;20024;-75
2022/01/24 04:34:44;;;;;;;17.20;8.30;;;;;;;-4.70;68.87;94624.25;5038385;28;20018;-75
2022/01/24 04:37:09;;;;;;;30.55;16.13;;;;;;;-4.72;68.56;94628.88;5023037;28;20022;-74
2022/01/24 04:39:35;;;;;;;17.55;9.77;;;;;;;-4.71;68.80;94637.47;5023094;28;20144;-74
2022/01/24 04:42:08;;;;;;;20.05;7.90;;;;;;;-4.70;68.75;94639.88;5022959;28;20018;-74
2022/01/24 04:55:04;;;;;;;14.02;7.10;;;;;;;-4.44;68.11;94651.28;5022802;28;20021;-74
2022/01/24 04:57:30;;;;;;;17.60;6.97;;;;;;;-4.41;67.75;94650.88;5022840;28;20076;-74
2022/01/24 04:59:57;;;;;;;12.85;6.65;;;;;;;-4.34;67.50;94656.88;5022671;28;20088;-74
2022/01/24 05:02:25;;;;;;;14.43;7.18;;;;;;;-4.32;67.13;94662.69;5022679;28;20088;-74
2022/01/24 05:04:52;;;;;;;16.65;7.80;;;;;;;-4.30;66.92;94668.47;5022762;28;20334;-75
2022/01/24 05:07:18;;;;;;;15.77;6.65;;;;;;;-4.32;67.13;94665.28;5022865;28;20029;-75
2022/01/24 05:23:42;;;;;;;12.85;6.32;;;;;;;-4.24;65.71;94692.91;5023935;28;20036;-76
2022/01/24 05:25:41;;;;;;;16.17;6.32;;;;;;;-4.26;65.03;94690.50;5018403;28;20357;-76
2022/01/24 05:28:06;;;;;;;13.05;6.97;;;;;;;-4.28;65.21;94692.50;5022569;28;20041;-76
2022/01/24 05:30:32;;;;;;;16.05;7.20;;;;;;;-4.26;64.84;94706.13;5022190;28;20277;-77
2022/01/24 05:32:57;;;;;;;13.40;7.13;;;;;;;-4.25;64.88;94702.53;5022442;28;20312;-75
2022/01/24 05:35:23;;;;;;;16.42;6.72;;;;;;;-4.23;63.73;94712.75;5022604;28;20045;-75
2022/01/24 05:37:48;;;;;;;15.05;6.80;;;;;;;-4.29;64.25;94722.16;5023763;28;20080;-75
2022/01/24 05:40:14;;;;;;;18.13;6.88;;;;;;;-4.29;64.23;94713.56;5026438;28;20026;-75
2022/01/24 05:42:39;;;;;;;13.20;6.25;;;;;;;-4.33;64.20;94730.56;5026304;28;20332;-74
2022/01/24 05:45:06;;;;;;;15.13;7.32;;;;;;;-4.32;64.38;94724.34;5026139;28;20311;-76
2022/01/24 05:47:32;;;;;;;18.10;8.02;;;;;;;-4.32;64.08;94721.75;5024503;28;20324;-76
2022/01/24 05:49:58;;;;;;;14.10;6.85;;;;;;;-4.31;64.49;94728.56;5026157;28;20078;-76
2022/01/24 05:52:23;;;;;;;12.35;6.07;;;;;;;-4.29;64.10;94729.97;5025967;28;20096;-76
2022/01/24 05:54:48;;;;;;;13.00;6.00;;;;;;;-4.33;63.08;94731.38;5026304;28;20045;-76
2022/01/24 05:57:14;;;;;;;11.75;6.55;;;;;;;-4.38;63.13;94732.97;5025915;28;20024;-76
2022/01/24 05:59:39;;;;;;;14.43;7.22;;;;;;;-4.44;63.17;94740.56;5025743;28;20017;-76
2022/01/24 06:02:05;;;;;;;17.98;7.00;;;;;;;-4.44;63.59;94758.78;5025664;28;20026;-76
2022/01/24 06:04:31;;;;;;;14.70;5.93;;;;;;;-4.50;63.53;94754.38;5025817;28;20025;-76
2022/01/24 06:06:56;;;;;;;15.60;6.85;;;;;;;-4.50;63.30;94756.97;5025599;28;20022;-76
2022/01/24 06:09:21;;;;;;;12.75;6.07;;;;;;;-4.49;62.52;94763.78;5025822;28;20025;-76
2022/01/24 06:11:47;;;;;;;20.95;6.10;;;;;;;-4.48;61.50;94775.78;5025869;28;20072;-77
2022/01/24 06:14:12;;;;;;;18.45;6.50;;;;;;;-4.43;60.62;94794.22;5025480;28;20034;-76
2022/01/24 06:16:38;;;;;;;20.63;6.72;;;;;;;-4.42;60.37;94782.00;5040725;28;20026;-76
2022/01/24 06:19:04;;;;;;;16.88;6.38;;;;;;;-4.52;59.28;94790.19;5025115;28;20264;-76
2022/01/24 06:21:30;;;;;;;12.07;6.00;;;;;;;-4.54;59.39;94786.16;5025007;28;20121;-76
2022/01/24 06:23:55;;;;;;;21.73;6.90;;;;;;;-4.56;59.45;94790.75;5025231;28;20046;-76
2022/01/24 06:26:21;;;;;;;14.00;6.68;;;;;;;-4.53;59.43;94793.00;5025401;28;20022;-76
2022/01/24 06:28:46;;;;;;;14.88;7.03;;;;;;;-4.50;60.22;94792.59;5040611;28;20026;-76
2022/01/24 06:31:12;;;;;;;15.05;5.63;;;;;;;-4.46;60.21;94794.63;5025294;28;20029;-76
2022/01/24 06:33:37;;;;;;;11.90;5.95;;;;;;;-4.43;59.88;94796.03;5024969;28;20026;-76
2022/01/24 06:36:04;;;;;;;11.18;5.25;;;;;;;-4.40;59.63;94807.81;5040279;28;20018;-76
2022/01/24 06:38:29;;;;;;;12.77;5.65;;;;;;;-4.39;58.99;94810.25;5024992;28;20033;-76
2022/01/24 06:40:55;;;;;;;14.27;5.68;;;;;;;-4.38;59.55;94806.63;5024910;28;20021;-76
2022/01/24 06:43:20;;;;;;;13.43;5.18;;;;;;;-4.36;59.27;94804.63;5025089;28;20087;-76
2022/01/24 06:45:46;;;;;;;10.70;5.68;;;;;;;-4.32;59.02;94805.84;5024795;28;20026;-76
2022/01/24 06:48:11;;;;;;;12.05;5.53;;;;;;;-4.24;59.14;94803.03;5039474;28;20080;-75
2022/01/24 06:50:37;;;;;;;11.70;5.40;;;;;;;-4.17;59.11;94805.69;5024668;28;20032;-76
2022/01/24 06:53:03;;;;;;;15.90;5.40;;;;;;;-4.15;59.14;94808.91;5024705;28;20022;-75
2022/01/24 06:55:28;;;;;;;16.35;6.20;;;;;;;-4.06;58.70;94804.28;5024775;28;20253;-75
2022/01/24 06:57:54;;;;;;;13.50;5.90;;;;;;;-4.01;58.74;94803.69;5024488;28;20226;-76
2022/01/24 07:00:25;;;;;;;11.35;5.75;;;;;;;-3.96;58.86;94796.88;5024814;28;20022;-75
2022/01/24 07:02:52;;;;;;;14.98;7.22;;;;;;;-3.90;59.09;94803.09;5024829;28;20022;-76
2022/01/24 07:05:18;;;;;;;20.15;7.32;;;;;;;-3.86;58.22;94805.09;5024497;28;20030;-76
2022/01/24 07:07:43;;;;;;;19.35;7.97;;;;;;;-3.81;58.38;94801.88;5024312;28;20408;-76
2022/01/24 07:10:09;;;;;;;20.75;7.05;;;;;;;-3.73;57.71;94809.50;5023195;28;20033;-75
2022/01/24 07:12:34;;;;;;;22.75;8.52;;;;;;;-3.63;57.81;94814.31;5024369;28;20097;-76
2022/01/24 07:15:07;;;;;;;16.70;8.43;;;;;;;-3.55;57.38;94821.94;5024270;28;20038;-76
2022/01/24 07:17:56;;;;;;;20.23;8.43;;;;;;;-3.48;56.86;94816.72;5024170;28;20017;-76
2022/01/24 07:20:17;;;;;;;18.10;9.07;;;;;;;-3.39;56.50;94820.72;5024326;28;20277;-78
2022/01/24 07:22:43;;;;;;;9.48;5.07;;;;;;;-3.30;55.14;94816.88;5024417;28;20029;-78
2022/01/24 07:25:09;;;;;;;11.65;5.15;;;;;;;-3.23;54.20;94832.53;5024151;28;20025;-79
2022/01/24 07:27:35;;;;;;;10.23;4.68;;;;;;;-3.15;53.90;94826.31;5024010;28;20068;-78
2022/01/24 07:30:01;;;;;;;9.13;3.70;;;;;;;-3.05;53.46;94831.91;5024277;28;20018;-76
2022/01/24 07:32:31;;;;;;;10.35;4.82;;;;;;;-2.94;53.01;94836.47;5024043;28;20014;-77
2022/01/24 07:34:58;;;;;;;15.45;5.30;;;;;;;-2.84;52.37;94838.66;5024237;28;20032;-83
2022/01/24 07:37:25;;;;;;;12.63;6.13;;;;;;;-2.73;52.93;94845.84;5023565;28;20018;-79
2022/01/24 07:39:52;;;;;;;14.25;5.43;;;;;;;-2.70;52.94;94842.03;5024185;28;20028;-79
2022/01/24 07:42:28;;;;;;;11.48;5.50;;;;;;;-2.71;53.45;94843.81;5023901;28;20277;-81
2022/01/24 07:44:54;;;;;;;12.10;5.00;;;;;;;-2.64;52.56;94859.50;5023962;28;20023;-79
2022/01/24 07:47:19;;;;;;;14.93;4.95;;;;;;;-2.58;53.07;94858.66;5023599;28;20241;-79
2022/01/24 07:49:45;;;;;;;9.00;4.05;;;;;;;-2.58;52.43;94866.50;5023713;28;20045;-78
2022/01/24 07:52:10;;;;;;;11.65;4.63;;;;;;;-2.56;52.81;94861.06;5023809;28;20029;-78
2022/01/24 07:54:36;;;;;;;11.57;5.10;;;;;;;-2.53;52.47;94864.03;5023688;28;20021;-78
2022/01/24 07:57:01;;;;;;;9.85;4.78;;;;;;;-2.52;52.15;94870.09;5026152;28;20042;-80
2022/01/24 07:59:27;;;;;;;13.48;5.80;;;;;;;-2.47;51.66;94867.66;5024883;28;20017;-80
2022/01/24 08:01:52;;;;;;;42.58;17.50;;;;;;;-2.44;51.88;94869.84;5024953;28;20022;-81
2022/01/24 08:04:18;;;;;;;63.38;22.92;;;;;;;-2.44;51.60;94875.09;5040609;28;20022;-84
2022/01/24 08:06:43;;;;;;;25.05;10.63;;;;;;;-2.58;51.78;94879.53;5025490;28;20030;-84
2022/01/24 08:09:09;;;;;;;16.92;6.50;;;;;;;-2.59;51.34;94882.34;5025950;28;20339;-82
2022/01/24 08:11:36;;;;;;;13.45;5.40;;;;;;;-2.64;52.41;94886.38;5025846;28;20060;-83
2022/01/24 08:14:02;;;;;;;11.70;5.38;;;;;;;-2.67;52.41;94875.53;5025693;28;20067;-83
2022/01/24 08:16:27;;;;;;;10.02;5.47;;;;;;;-2.63;52.33;94881.94;5040904;28;20309;-80
2022/01/24 08:18:55;;;;;;;10.75;5.20;;;;;;;-2.59;52.38;94884.97;5025238;28;20030;-82
2022/01/24 08:21:20;;;;;;;10.88;4.78;;;;;;;-2.63;52.09;94887.16;5024678;28;20060;-80
2022/01/24 08:23:46;;;;;;;12.82;4.05;;;;;;;-2.61;52.41;94890.38;5024826;28;20026;-78
2022/01/24 08:26:12;;;;;;;9.65;4.85;;;;;;;-2.55;51.99;94904.44;5025270;28;20029;-77
2022/01/24 08:28:37;;;;;;;13.07;5.70;;;;;;;-2.56;52.06;94902.84;5023056;28;20256;-78
2022/01/24 08:31:02;;;;;;;11.10;5.57;;;;;;;-2.53;53.23;94907.63;5022855;28;20026;-77
2022/01/24 08:33:28;;;;;;;12.38;5.95;;;;;;;-2.47;52.97;94914.63;5022925;28;20220;-79
2022/01/24 08:35:53;;;;;;;17.95;7.32;;;;;;;-2.42;53.31;94912.22;5022991;28;20053;-78
2022/01/24 08:38:23;;;;;;;16.02;6.63;;;;;;;-2.33;53.40;94924.03;5023221;28;20025;-77
2022/01/24 08:40:53;;;;;;;16.10;6.18;;;;;;;-2.27;53.41;94922.41;5023078;28;20029;-77
2022/01/24 08:43:52;;;;;;;13.98;7.05;;;;;;;-2.16;53.46;94924.38;5022929;28;20032;-77
2022/01/24 08:46:09;;;;;;;13.10;7.10;;;;;;;-2.10;52.94;94923.53;5023889;28;20057;-78
2022/01/24 08:48:34;;;;;;;19.65;7.25;;;;;;;-2.04;52.33;94930.53;5022804;28;20378;-76
2022/01/24 08:51:00;;;;;;;21.10;7.63;;;;;;;-1.96;52.80;94921.66;5022586;28;20022;-77
2022/01/24 08:53:31;;;;;;;11.35;6.13;;;;;;;-1.84;52.36;94920.00;5022767;28;20029;-75
2022/01/24 08:55:58;;;;;;;14.93;8.32;;;;;;;-1.80;51.62;94928.22;5022827;28;20189;-76
2022/01/24 08:58:24;;;;;;;17.35;6.95;;;;;;;-1.73;51.03;94928.19;5022902;28;20022;-75
2022/01/24 09:00:50;;;;;;;16.23;6.93;;;;;;;-1.68;51.60;94923.13;5022803;28;20022;-76
2022/01/24 09:03:16;;;;;;;12.88;6.57;;;;;;;-1.68;51.40;94925.75;5022527;28;20032;-75
2022/01/24 09:05:42;;;;;;;10.52;5.47;;;;;;;-1.60;50.80;94922.88;5021329;28;20093;-78
2022/01/24 09:08:09;;;;;;;11.27;5.97;;;;;;;-1.56;50.27;94923.28;5022690;28;20021;-78
2022/01/24 09:10:37;;;;;;;14.10;5.80;;;;;;;-1.49;50.50;94924.81;5022514;28;20033;-79
2022/01/24 09:13:03;;;;;;;8.90;4.97;;;;;;;-1.48;50.42;94921.19;5037392;28;20295;-79
2022/01/24 09:15:28;;;;;;;13.35;5.65;;;;;;;-1.41;48.59;94927.16;5022494;28;20022;-78
2022/01/24 09:17:54;;;;;;;13.10;4.70;;;;;;;-1.33;48.67;94938.41;5022670;28;20318;-78
2022/01/24 09:20:19;;;;;;;11.20;5.22;;;;;;;-1.33;48.97;94933.97;5022652;28;20053;-77
2022/01/24 09:22:47;;;;;;;8.95;4.70;;;;;;;-1.33;48.92;94923.50;5022485;28;20316;-78
2022/01/24 09:25:15;;;;;;;13.13;5.35;;;;;;;-1.31;48.63;94925.91;5022490;28;20022;-77
2022/01/24 09:27:42;;;;;;;12.32;5.00;;;;;;;-1.27;48.83;94932.31;5022320;28;20026;-76
2022/01/24 09:30:10;;;;;;;12.55;5.40;;;;;;;-1.22;48.94;94922.81;5022471;28;20053;-77
2022/01/24 09:32:36;;;;;;;10.60;5.28;;;;;;;-1.11;48.21;94920.53;5022444;28;20041;-78
2022/01/24 09:35:04;;;;;;;11.73;5.88;;;;;;;-0.96;47.59;94922.81;5022420;28;20022;-78
2022/01/24 09:37:30;;;;;;;12.45;5.30;;;;;;;-0.86;46.50;94920.50;5020720;28;20333;-79
2022/01/24 09:39:56;;;;;;;12.73;5.82;;;;;;;-0.72;45.71;94916.75;5022349;28;20267;-79
2022/01/24 09:42:21;;;;;;;13.90;5.38;;;;;;;-0.64;45.96;94921.69;5022397;28;20125;-78
2022/01/24 09:44:47;;;;;;;10.55;5.15;;;;;;;-0.53;46.47;94924.63;5022168;28;20025;-78
2022/01/24 09:47:15;;;;;;;14.43;6.68;;;;;;;-0.43;45.89;94930.97;5021900;28;20035;-78
2022/01/24 09:49:41;;;;;;;8.13;4.22;;;;;;;-0.39;44.95;94925.28;5022314;28;20018;-79
2022/01/24 09:52:06;;;;;;;10.10;4.60;;;;;;;-0.35;44.19;94929.06;5022197;28;20347;-78
2022/01/24 09:54:32;;;;;;;9.80;5.20;;;;;;;-0.36;44.76;94923.03;5022390;28;20026;-78
2022/01/24 09:56:57;;;;;;;7.90;4.47;;;;;;;-0.35;44.77;94927.25;5021953;28;20189;-80
2022/01/24 09:59:23;;;;;;;12.52;5.25;;;;;;;-0.39;44.74;94926.06;5021978;28;20056;-79
2022/01/24 10:01:49;;;;;;;16.70;5.85;;;;;;;-0.41;44.47;94910.59;5022146;28;20018;-77
2022/01/24 10:04:20;;;;;;;13.43;6.25;;;;;;;-0.41;44.38;94917.63;5021860;28;20022;-79
2022/01/24 10:07:04;;;;;;;9.05;5.55;;;;;;;-0.45;44.94;94913.84;5021593;28;20022;-78
2022/01/24 10:09:42;;;;;;;10.40;5.32;;;;;;;-0.35;45.06;94916.75;5037370;28;20296;-78
2022/01/24 10:17:50;;;;;;;13.05;6.15;;;;;;;-0.94;41.76;94913.72;5022313;28;20084;-78
2022/01/24 10:20:31;;;;;;;12.27;6.50;;;;;;;-1.30;44.29;94906.59;5021988;28;20018;-77
2022/01/24 10:23:00;;;;;;;11.80;5.90;;;;;;;-1.59;44.00;94911.41;5037308;28;20049;-77
2022/01/24 10:25:25;;;;;;;13.20;6.57;;;;;;;-1.89;45.89;94908.59;5040727;28;20097;-76
2022/01/24 10:28:00;;;;;;;16.02;6.45;;;;;;;-2.02;47.29;94912.84;5025604;28;20255;-77
2022/01/24 10:30:27;;;;;;;16.52;5.43;;;;;;;-2.15;44.15;94922.56;5025253;28;20025;-76
2022/01/24 10:32:54;;;;;;;10.15;5.47;;;;;;;-2.41;46.92;94929.47;5025316;28;20331;-77
2022/01/24 10:35:40;;;;;;;12.35;5.50;;;;;;;-2.44;46.95;94933.31;5025366;28;20018;-78
2022/01/24 10:38:21;;;;;;;9.13;4.70;;;;;;;-2.33;47.13;94924.03;5023595;28;20052;-79
2022/01/24 10:40:51;;;;;;;11.95;5.63;;;;;;;-2.36;47.60;94921.84;5024179;28;20022;-79
2022/01/24 10:43:17;;;;;;;7.63;4.47;;;;;;;-2.19;47.09;94924.78;5024654;28;20029;-78
2022/01/24 10:45:45;;;;;;;12.32;5.00;;;;;;;-2.05;46.05;94920.31;5039835;28;20022;-75
2022/01/24 10:48:10;;;;;;;12.68;5.10;;;;;;;-2.26;45.96;94917.00;5040031;28;20025;-76
2022/01/24 10:50:36;;;;;;;10.65;4.93;;;;;;;-2.12;46.02;94929.97;5024556;28;20215;-76
2022/01/24 10:53:15;;;;;;;8.73;5.03;;;;;;;-2.07;45.17;94932.78;5023517;28;20021;-76
2022/01/24 10:55:42;;;;;;;8.02;4.30;;;;;;;-1.94;45.38;94932.72;5023698;28;20087;-76
2022/01/24 10:58:18;;;;;;;10.20;4.65;;;;;;;-1.87;45.51;94927.47;5024748;28;20096;-77
2022/01/24 11:00:45;;;;;;;9.30;5.68;;;;;;;-1.88;45.64;94926.66;5024541;28;20045;-76
2022/01/24 11:03:19;;;;;;;12.00;4.88;;;;;;;-1.96;46.25;94926.88;5024756;28;20075;-77
2022/01/24 11:05:46;;;;;;;13.38;6.50;;;;;;;-2.05;46.61;94931.56;5024544;28;20029;-77
2022/01/24 11:08:17;;;;;;;10.90;5.45;;;;;;;-2.07;45.58;94930.19;5024781;28;20025;-76
2022/01/24 11:10:48;;;;;;;12.52;5.55;;;;;;;-2.11;45.41;94924.56;5024563;28;20030;-77
2022/01/24 11:13:17;;;;;;;11.33;4.80;;;;;;;-2.03;46.17;94923.53;5024329;28;20050;-76
2022/01/24 11:15:48;;;;;;;10.90;6.13;;;;;;;-1.94;45.23;94924.06;5024418;28;20026;-75
2022/01/24 11:18:18;;;;;;;10.00;5.72;;;;;;;-1.86;46.79;94914.16;5024513;28;20077;-75
2022/01/24 11:20:46;;;;;;;9.63;5.22;;;;;;;-1.73;47.08;94915.94;5024584;28;20028;-77
2022/01/24 11:23:12;;;;;;;12.98;7.13;;;;;;;-1.65;46.46;94920.09;5023723;28;20025;-80
2022/01/24 11:25:43;;;;;;;10.25;5.18;;;;;;;-1.49;45.99;94922.19;5023858;28;20026;-78
2022/01/24 11:28:10;;;;;;;11.38;5.55;;;;;;;-1.44;45.86;94930.22;5024374;28;20096;-77
2022/01/24 11:30:47;;;;;;;13.77;6.20;;;;;;;-1.76;42.94;94923.38;5024588;28;20113;-76
2022/01/24 11:33:18;;;;;;;20.50;7.80;;;;;;;-1.98;45.48;94920.28;5024078;28;20021;-77
2022/01/24 11:35:51;;;;;;;16.35;6.15;;;;;;;-2.09;47.97;94922.53;5024136;28;20300;-76
2022/01/24 11:38:37;;;;;;;11.45;6.05;;;;;;;-2.10;47.68;94927.97;5024099;28;20056;-76
2022/01/24 11:41:21;;;;;;;15.63;6.57;;;;;;;-2.27;46.86;94919.81;5024034;28;20096;-76
2022/01/24 11:43:51;;;;;;;16.83;7.13;;;;;;;-2.21;47.09;94918.97;5023942;28;20033;-77
2022/01/24 11:46:48;;;;;;;13.68;6.38;;;;;;;-2.12;47.01;94919.53;5039170;28;20317;-77
2022/01/24 11:49:19;;;;;;;20.10;6.32;;;;;;;-1.99;47.24;94921.28;5023604;28;20028;-78
2022/01/24 11:51:49;;;;;;;13.77;6.85;;;;;;;-1.83;47.32;94932.06;5023693;28;20065;-76
2022/01/24 11:57:37;;;;;;;13.15;6.78;;;;;;;-1.56;46.65;94928.50;5023839;28;20029;-76
2022/01/24 12:00:06;;;;;;;13.65;5.55;;;;;;;-1.73;42.34;94923.78;5023657;28;20312;-76
2022/01/24 12:02:39;;;;;;;13.93;6.38;;;;;;;-1.74;45.58;94937.03;5023770;28;20026;-77
2022/01/24 12:05:20;;;;;;;16.27;6.82;;;;;;;-1.85;44.21;94936.69;5023746;28;20029;-77
2022/01/24 12:08:27;;;;;;;11.85;6.28;;;;;;;-1.89;43.42;94947.78;5022101;28;20034;-77
2022/01/24 12:10:54;;;;;;;10.77;4.80;;;;;;;-2.18;40.98;94938.66;5023619;28;20092;-77
2022/01/24 12:13:37;;;;;;;13.50;6.80;;;;;;;-2.33;43.55;94939.69;5023554;28;20049;-76
2022/01/24 12:16:10;;;;;;;32.83;15.10;;;;;;;-2.57;43.70;94927.31;5023793;28;20026;-78
2022/01/24 12:18:35;;;;;;;16.98;8.15;;;;;;;-2.60;45.33;94936.38;5023287;28;20257;-78
2022/01/24 12:21:01;;;;;;;12.57;6.18;;;;;;;-2.60;45.13;94931.16;5023251;28;20060;-79
2022/01/24 12:23:31;;;;;;;16.95;8.30;;;;;;;-2.61;44.35;94945.19;5024358;28;20038;-80
2022/01/24 12:26:06;;;;;;;35.60;14.98;;;;;;;-2.52;44.85;94946.59;5023432;28;20026;-78
2022/01/24 12:28:44;;;;;;;21.98;9.15;;;;;;;-2.55;45.21;94943.59;5023333;28;20048;-79
2022/01/24 12:31:27;;;;;;;11.50;6.00;;;;;;;-2.59;44.55;94937.97;5023187;28;20029;-80
2022/01/24 12:33:53;;;;;;;10.77;5.47;;;;;;;-2.77;45.16;94941.19;5023131;28;20097;-79
2022/01/24 12:36:47;;;;;;;9.00;5.15;;;;;;;-2.75;46.13;94943.63;5023147;28;20029;-80
2022/01/24 12:39:32;;;;;;;11.18;4.88;;;;;;;-2.83;45.71;94948.06;5022914;28;20304;-79
2022/01/24 12:42:07;;;;;;;11.75;5.25;;;;;;;-2.95;45.76;94954.91;5022956;28;20076;-79
2022/01/24 12:47:05;;;;;;;13.80;6.20;;;;;;;-2.80;47.15;94962.50;5022281;28;20030;-80
2022/01/24 12:49:32;;;;;;;13.80;6.88;;;;;;;-2.75;46.93;94960.06;5022899;28;20030;-79
2022/01/24 12:52:03;;;;;;;9.65;5.30;;;;;;;-2.78;45.67;94963.09;5022855;28;20021;-79
2022/01/24 12:54:33;;;;;;;13.43;6.20;;;;;;;-2.82;45.65;94956.69;5037778;28;20021;-80
2022/01/24 12:57:01;;;;;;;9.48;5.03;;;;;;;-2.89;44.56;94967.13;5022934;28;20212;-80
2022/01/24 12:59:27;;;;;;;12.07;5.72;;;;;;;-2.93;45.66;94962.50;5022575;28;20080;-79
2022/01/24 13:01:56;;;;;;;12.05;5.10;;;;;;;-2.88;46.48;94968.72;5022588;28;20320;-80
2022/01/24 13:04:34;;;;;;;16.83;6.88;;;;;;;-2.81;45.90;94958.28;5022749;28;20018;-78
2022/01/24 13:07:00;;;;;;;15.02;6.65;;;;;;;-2.83;46.09;94955.06;5022448;28;20091;-77
2022/01/24 13:09:26;;;;;;;11.63;6.03;;;;;;;-2.85;45.90;94957.06;5022618;28;20308;-76
2022/01/24 13:11:54;;;;;;;13.23;6.20;;;;;;;-3.02;45.05;94960.09;5021374;28;20017;-78
2022/01/24 13:25:27;;;;;;;11.43;5.60;;;;;;;-2.70;43.72;94949.84;5020405;28;20225;-77
2022/01/24 13:28:13;;;;;;;13.20;5.88;;;;;;;-2.69;43.12;94946.22;5021920;28;20076;-77
2022/01/24 13:30:46;;;;;;;13.05;5.55;;;;;;;-2.74;44.03;94950.44;5021405;28;20309;-75
2022/01/24 13:33:20;;;;;;;12.98;6.35;;;;;;;-2.76;43.46;94963.69;5036820;28;20037;-77
2022/01/24 13:35:51;;;;;;;18.90;6.30;;;;;;;-2.78;44.36;94957.88;5021308;28;20332;-75